Strona główna
METAR-TAF:

METAR-TAF

Lotnisko :

Harriman-and-West Airport

North Adams, Massachusetts, Stany Zjednoczone

Szerokość geograficzna: 42-41-50N, Długość geograficzna: 073-10-13W, wysokość: 199 m

Aktualna obserwacja pogody

Raport powstał 24 minut temu, godzina 08:52 UTC
Wiatr 4 kt od zachodnio-południowy zachód
Temperatura 18°C
Wilgotność 83%
Ciśnienie 1008 hPa
Widzialność: 16.1 km
Przerywane chmury na wysokości 1900 ft

METAR: KAQW 040852Z AUTO 24004KT 10SM BKN019 18/15 A2976 RMK AO2 SLP074 T01830150 51013

czas: 05:16 (09:16 UTC)


TAF: brakujący

Obserwacja i prognoza pogody dla ponad 4000 lotnisk (raport METAR i TAF).

Dostępne stacje oznaczono żółtymi i czerwonymi punktami na mapie.

Najedź kursorem aby zobaczyć nazwę stacji.

Kliknij aby zobaczyć obserwacje i prognozy pogody.

Aby zmienić mapę: kliknij na zielony przycisk z czarnym krzyżykiem, aby powiększyć; na zielony przycisk z myślnikiem, aby pomniejszyć; na zielone strzałki, aby przejść do map sąsiednich.


METAR-TAF: